QFA16 KLAX-YBBN
Flight info
| Callsign | QFA16 |
|---|---|
| Flight time | N/A |
| Altitude | 32000 |
| Route | SUMMR2 DINTY DCT 3342N12808W 3319N13237W 3122N13811W/N0495F340 2938N14129W 2846N14311W 2633N14731W 2415N15138W 2324N15258W 2124N15600W 1919N15830W 1754N15954W 1546N16158W/N0501F360 1304N16425W 0951N16708W 0906N16747W 0523N17117W 0401N17243W 0203N17441W 0023S17709W 0242S17938W 0301S18000W 0516S17729E/N0498F380 0848S17325E 1108S17047E 1404S16732E 1807S16431E 2006S16300E 2238S16100E 2446S15830E 2545S15700E DCT MEPEM Q144 ATROP H224 TEBOT |
| Aircraft | B789/H-SDE1E2E3FGHIJ2J3J4J5M1RWXY/LB1D1 |
Departure
| Time | 2026-04-25 07:21 |
|---|---|
| Airport | Los Angeles International Airport (KLAX) |
Arrival
| Time | N/A |
|---|---|
| Airport | Brisbane International Airport (YBBN) |
| Time | Latitude | Longitude | Altitude | Speed | Heading |
|---|---|---|---|---|---|
| 2026-04-25 06:41 | 33.94343 | -118.41424 | 126 ft | 0 kts | 264° |
| 2026-04-25 07:09 | 33.94343 | -118.41413 | 127 ft | 2 kts | 265° |
| 2026-04-25 07:09 | 33.94345 | -118.41389 | 127 ft | 3 kts | 270° |
| 2026-04-25 07:10 | 33.94344 | -118.41365 | 126 ft | 3 kts | 281° |
| 2026-04-25 07:10 | 33.94338 | -118.41343 | 127 ft | 3 kts | 307° |
| 2026-04-25 07:10 | 33.94328 | -118.41331 | 125 ft | 1 kts | 350° |
| 2026-04-25 07:10 | 33.94325 | -118.41330 | 131 ft | 12 kts | 353° |
| 2026-04-25 07:13 | 33.94326 | -118.41330 | 125 ft | 1 kts | 353° |
| 2026-04-25 07:13 | 33.94343 | -118.41333 | 127 ft | 4 kts | 353° |
| 2026-04-25 07:13 | 33.94392 | -118.41340 | 126 ft | 8 kts | 353° |
| 2026-04-25 07:14 | 33.94446 | -118.41348 | 126 ft | 8 kts | 353° |
| 2026-04-25 07:14 | 33.94508 | -118.41357 | 127 ft | 10 kts | 353° |
| 2026-04-25 07:14 | 33.94578 | -118.41368 | 127 ft | 11 kts | 354° |
| 2026-04-25 07:14 | 33.94655 | -118.41378 | 126 ft | 12 kts | 353° |
| 2026-04-25 07:15 | 33.94749 | -118.41385 | 126 ft | 13 kts | 16° |
| 2026-04-25 07:15 | 33.94790 | -118.41310 | 127 ft | 10 kts | 79° |
| 2026-04-25 07:15 | 33.94800 | -118.41226 | 127 ft | 10 kts | 82° |
| 2026-04-25 07:15 | 33.94811 | -118.41123 | 129 ft | 14 kts | 83° |
| 2026-04-25 07:16 | 33.94825 | -118.40995 | 126 ft | 15 kts | 83° |
| 2026-04-25 07:16 | 33.94837 | -118.40871 | 127 ft | 14 kts | 84° |
| 2026-04-25 07:16 | 33.94848 | -118.40755 | 127 ft | 13 kts | 83° |
| 2026-04-25 07:16 | 33.94860 | -118.40647 | 128 ft | 13 kts | 82° |
| 2026-04-25 07:17 | 33.94870 | -118.40545 | 131 ft | 12 kts | 83° |
| 2026-04-25 07:17 | 33.94880 | -118.40452 | 131 ft | 11 kts | 82° |
| 2026-04-25 07:17 | 33.94890 | -118.40351 | 126 ft | 13 kts | 84° |
| 2026-04-25 07:17 | 33.94902 | -118.40236 | 126 ft | 15 kts | 82° |
| 2026-04-25 07:18 | 33.94915 | -118.40107 | 127 ft | 16 kts | 83° |
| 2026-04-25 07:18 | 33.94930 | -118.39975 | 127 ft | 13 kts | 76° |
| 2026-04-25 07:18 | 33.94958 | -118.39928 | 127 ft | 4 kts | 31° |
| 2026-04-25 07:18 | 33.94981 | -118.39920 | 127 ft | 3 kts | 8° |
| 2026-04-25 07:19 | 33.95001 | -118.39921 | 126 ft | 4 kts | 357° |
| 2026-04-25 07:19 | 33.95029 | -118.39929 | 126 ft | 2 kts | 321° |
| 2026-04-25 07:19 | 33.95032 | -118.39940 | 127 ft | 1 kts | 286° |
| 2026-04-25 07:19 | 33.95034 | -118.39967 | 126 ft | 8 kts | 269° |
| 2026-04-25 07:20 | 33.95012 | -118.40235 | 127 ft | 62 kts | 263° |
| 2026-04-25 07:20 | 33.94935 | -118.40997 | 131 ft | 120 kts | 263° |
| 2026-04-25 07:20 | 33.94810 | -118.42215 | 130 ft | 171 kts | 263° |
| 2026-04-25 07:20 | 33.94651 | -118.43655 | 421 ft | 186 kts | 257° |
| 2026-04-25 07:21 | 33.94454 | -118.45115 | 1222 ft | 192 kts | 260° |
| 2026-04-25 07:21 | 33.94344 | -118.46774 | 1930 ft | 200 kts | 267° |
| 2026-04-25 07:21 | 33.94341 | -118.48478 | 2412 ft | 217 kts | 269° |
| 2026-04-25 07:21 | 33.94274 | -118.50352 | 2929 ft | 227 kts | 265° |
| 2026-04-25 07:22 | 33.94000 | -118.52314 | 3279 ft | 251 kts | 260° |
| 2026-04-25 07:22 | 33.93879 | -118.54475 | 3768 ft | 261 kts | 268° |
| 2026-04-25 07:22 | 33.93795 | -118.56656 | 4518 ft | 262 kts | 266° |
| 2026-04-25 07:22 | 33.93616 | -118.58882 | 5303 ft | 267 kts | 264° |
| 2026-04-25 07:23 | 33.93420 | -118.61097 | 6203 ft | 269 kts | 264° |
| 2026-04-25 07:23 | 33.93244 | -118.63301 | 6992 ft | 271 kts | 265° |
| 2026-04-25 07:23 | 33.93078 | -118.65567 | 7821 ft | 273 kts | 265° |
| 2026-04-25 07:23 | 33.92899 | -118.67859 | 8605 ft | 277 kts | 264° |
| 2026-04-25 07:24 | 33.92717 | -118.70173 | 9406 ft | 278 kts | 265° |
| 2026-04-25 07:24 | 33.92537 | -118.72505 | 10189 ft | 280 kts | 264° |
| 2026-04-25 07:24 | 33.92346 | -118.74950 | 10389 ft | 307 kts | 264° |
| 2026-04-25 07:24 | 33.92140 | -118.77582 | 10482 ft | 333 kts | 264° |
| 2026-04-25 07:25 | 33.91913 | -118.80501 | 10642 ft | 355 kts | 264° |
| 2026-04-25 07:25 | 33.91705 | -118.83422 | 11493 ft | 354 kts | 268° |
| 2026-04-25 07:25 | 33.91828 | -118.86388 | 12271 ft | 355 kts | 271° |
| 2026-04-25 07:25 | 33.91899 | -118.89357 | 13041 ft | 355 kts | 270° |
| 2026-04-25 07:26 | 33.91957 | -118.92358 | 13694 ft | 359 kts | 270° |
| 2026-04-25 07:26 | 33.92047 | -118.95368 | 14402 ft | 363 kts | 271° |
| 2026-04-25 07:26 | 33.92153 | -118.98408 | 15117 ft | 365 kts | 272° |
| 2026-04-25 07:26 | 33.92620 | -119.01427 | 15699 ft | 371 kts | 284° |
| 2026-04-25 07:27 | 33.93630 | -119.04318 | 16296 ft | 378 kts | 296° |
| 2026-04-25 07:27 | 33.94990 | -119.07015 | 16923 ft | 382 kts | 298° |
| 2026-04-25 07:27 | 33.96401 | -119.09744 | 17549 ft | 385 kts | 298° |
| 2026-04-25 07:27 | 33.97833 | -119.12483 | 18129 ft | 388 kts | 298° |
| 2026-04-25 07:28 | 33.99264 | -119.15255 | 18692 ft | 391 kts | 297° |
| 2026-04-25 07:28 | 34.00876 | -119.17932 | 19217 ft | 400 kts | 308° |
| 2026-04-25 07:28 | 34.02899 | -119.20245 | 19822 ft | 406 kts | 318° |
| 2026-04-25 07:28 | 34.05225 | -119.22271 | 20320 ft | 411 kts | 319° |
| 2026-04-25 07:29 | 34.07529 | -119.24259 | 20791 ft | 414 kts | 320° |
| 2026-04-25 07:29 | 34.09891 | -119.26274 | 21297 ft | 416 kts | 319° |
| 2026-04-25 07:29 | 34.12258 | -119.28309 | 21771 ft | 418 kts | 319° |
| 2026-04-25 07:29 | 34.14637 | -119.30359 | 22185 ft | 421 kts | 319° |
| 2026-04-25 07:30 | 34.17032 | -119.32428 | 22681 ft | 424 kts | 319° |
| 2026-04-25 07:30 | 34.19438 | -119.34502 | 23076 ft | 426 kts | 319° |
| 2026-04-25 07:30 | 34.21861 | -119.36587 | 23457 ft | 428 kts | 319° |
| 2026-04-25 07:30 | 34.24301 | -119.38691 | 23833 ft | 431 kts | 319° |
| 2026-04-25 07:31 | 34.26740 | -119.40804 | 24200 ft | 433 kts | 319° |
| 2026-04-25 07:31 | 34.29163 | -119.42903 | 24555 ft | 435 kts | 319° |
| 2026-04-25 07:31 | 34.31635 | -119.45037 | 24954 ft | 436 kts | 319° |
| 2026-04-25 07:31 | 34.34066 | -119.47247 | 25264 ft | 436 kts | 311° |
| 2026-04-25 07:32 | 34.36160 | -119.49868 | 25674 ft | 430 kts | 304° |
| 2026-04-25 07:32 | 34.37852 | -119.52830 | 25952 ft | 427 kts | 295° |
| 2026-04-25 07:32 | 34.39123 | -119.56073 | 26252 ft | 424 kts | 287° |
| 2026-04-25 07:32 | 34.39934 | -119.59464 | 26573 ft | 423 kts | 278° |
| 2026-04-25 07:33 | 34.40291 | -119.62991 | 26922 ft | 422 kts | 270° |
| 2026-04-25 07:33 | 34.40184 | -119.66537 | 27209 ft | 421 kts | 264° |
| 2026-04-25 07:33 | 34.39946 | -119.70088 | 27420 ft | 424 kts | 264° |
| 2026-04-25 07:33 | 34.39696 | -119.73662 | 27712 ft | 426 kts | 264° |
| 2026-04-25 07:34 | 34.39437 | -119.77235 | 28002 ft | 427 kts | 264° |
| 2026-04-25 07:34 | 34.39183 | -119.80821 | 28294 ft | 427 kts | 264° |
| 2026-04-25 07:34 | 34.38939 | -119.84372 | 28449 ft | 430 kts | 264° |
| 2026-04-25 07:34 | 34.38686 | -119.87981 | 28757 ft | 430 kts | 264° |
| 2026-04-25 07:35 | 34.38411 | -119.91600 | 29004 ft | 433 kts | 264° |
| 2026-04-25 07:35 | 34.38149 | -119.95232 | 29288 ft | 433 kts | 264° |
| 2026-04-25 07:35 | 34.37892 | -119.98876 | 29550 ft | 434 kts | 264° |
| 2026-04-25 07:35 | 34.37631 | -120.02528 | 29764 ft | 436 kts | 264° |
| 2026-04-25 07:36 | 34.37365 | -120.06197 | 29998 ft | 438 kts | 264° |
| 2026-04-25 07:36 | 34.37093 | -120.09870 | 30202 ft | 438 kts | 264° |
| 2026-04-25 07:36 | 34.36817 | -120.13542 | 30356 ft | 438 kts | 264° |
| 2026-04-25 07:36 | 34.36545 | -120.17232 | 30578 ft | 438 kts | 264° |
| 2026-04-25 07:37 | 34.36277 | -120.20901 | 30719 ft | 439 kts | 264° |
| 2026-04-25 07:37 | 34.36006 | -120.24587 | 30931 ft | 440 kts | 263° |
| 2026-04-25 07:37 | 34.35730 | -120.28273 | 31199 ft | 439 kts | 263° |
| 2026-04-25 07:37 | 34.35450 | -120.31943 | 31544 ft | 437 kts | 263° |
| 2026-04-25 07:38 | 34.35177 | -120.35543 | 31907 ft | 432 kts | 263° |
| 2026-04-25 07:38 | 34.34912 | -120.39156 | 32192 ft | 430 kts | 263° |
| 2026-04-25 07:38 | 34.34629 | -120.42758 | 32488 ft | 427 kts | 261° |
| 2026-04-25 07:38 | 34.34053 | -120.46256 | 32714 ft | 424 kts | 254° |
| 2026-04-25 07:39 | 34.33109 | -120.49641 | 32956 ft | 423 kts | 247° |
| 2026-04-25 07:39 | 34.31873 | -120.52864 | 33228 ft | 422 kts | 245° |
| 2026-04-25 07:39 | 34.30631 | -120.56029 | 33480 ft | 420 kts | 245° |
| 2026-04-25 07:39 | 34.29372 | -120.59215 | 33739 ft | 416 kts | 245° |
| 2026-04-25 07:40 | 34.28123 | -120.62372 | 33959 ft | 416 kts | 245° |
| 2026-04-25 07:40 | 34.26874 | -120.65530 | 34243 ft | 414 kts | 245° |
| 2026-04-25 07:40 | 34.25635 | -120.68656 | 34432 ft | 414 kts | 245° |
| 2026-04-25 07:40 | 34.24404 | -120.71756 | 34644 ft | 413 kts | 245° |
| 2026-04-25 07:41 | 34.23159 | -120.74887 | 34928 ft | 413 kts | 245° |
| 2026-04-25 07:41 | 34.21924 | -120.78006 | 35242 ft | 410 kts | 245° |
| 2026-04-25 07:41 | 34.20692 | -120.81109 | 35401 ft | 410 kts | 245° |
| 2026-04-25 07:41 | 34.19458 | -120.84215 | 35590 ft | 409 kts | 245° |
| 2026-04-25 07:42 | 34.18226 | -120.87303 | 35794 ft | 407 kts | 244° |
| 2026-04-25 07:42 | 34.17408 | -120.89344 | 35888 ft | 407 kts | 245° |
| 2026-04-25 07:42 | 34.16177 | -120.92425 | 36073 ft | 407 kts | 245° |
| 2026-04-25 07:42 | 34.14954 | -120.95501 | 36226 ft | 405 kts | 245° |
| 2026-04-25 07:43 | 34.13727 | -120.98579 | 36333 ft | 407 kts | 245° |
| 2026-04-25 07:43 | 34.12495 | -121.01650 | 36484 ft | 406 kts | 245° |
| 2026-04-25 07:43 | 34.11261 | -121.04726 | 36653 ft | 405 kts | 245° |
| 2026-04-25 07:43 | 34.10050 | -121.07750 | 36798 ft | 406 kts | 245° |
| 2026-04-25 07:44 | 34.08807 | -121.10850 | 37023 ft | 404 kts | 245° |
| 2026-04-25 07:44 | 34.07601 | -121.13849 | 37137 ft | 402 kts | 245° |
| 2026-04-25 07:44 | 34.06380 | -121.16882 | 37302 ft | 401 kts | 245° |
| 2026-04-25 07:44 | 34.05173 | -121.19902 | 37424 ft | 401 kts | 244° |
| 2026-04-25 07:45 | 34.02743 | -121.25927 | 37642 ft | 399 kts | 244° |
| 2026-04-25 07:45 | 34.00319 | -121.31946 | 37801 ft | 398 kts | 244° |
| 2026-04-25 07:46 | 33.99096 | -121.34956 | 37902 ft | 399 kts | 244° |
| 2026-04-25 07:46 | 33.97886 | -121.37948 | 38005 ft | 399 kts | 244° |
| 2026-04-25 07:46 | 33.95461 | -121.43942 | 38002 ft | 396 kts | 244° |
| 2026-04-25 07:47 | 33.93064 | -121.49848 | 37999 ft | 392 kts | 244° |
| 2026-04-25 07:47 | 33.90677 | -121.55746 | 38006 ft | 393 kts | 244° |
| 2026-04-25 07:48 | 33.88264 | -121.61660 | 38006 ft | 393 kts | 244° |
| 2026-04-25 07:48 | 33.85856 | -121.67569 | 38003 ft | 392 kts | 243° |
| 2026-04-25 07:49 | 33.83448 | -121.73467 | 38006 ft | 393 kts | 244° |
| 2026-04-25 07:49 | 33.81043 | -121.79335 | 38011 ft | 395 kts | 244° |
| 2026-04-25 07:50 | 33.78618 | -121.85250 | 38013 ft | 393 kts | 244° |
| 2026-04-25 07:50 | 33.76204 | -121.91136 | 38001 ft | 393 kts | 244° |
| 2026-04-25 07:51 | 33.73775 | -121.97043 | 38001 ft | 393 kts | 244° |
| 2026-04-25 07:51 | 33.71347 | -122.02930 | 38003 ft | 393 kts | 244° |
| 2026-04-25 07:52 | 33.68911 | -122.08833 | 38007 ft | 395 kts | 244° |
| 2026-04-25 07:52 | 33.66469 | -122.14750 | 38010 ft | 396 kts | 243° |
| 2026-04-25 07:53 | 33.64031 | -122.20628 | 38005 ft | 396 kts | 243° |
| 2026-04-25 07:53 | 33.61575 | -122.26553 | 38005 ft | 396 kts | 243° |
| 2026-04-25 07:54 | 33.59125 | -122.32447 | 38006 ft | 394 kts | 243° |
| 2026-04-25 07:54 | 33.56687 | -122.38309 | 38009 ft | 394 kts | 243° |
| 2026-04-25 07:55 | 33.54230 | -122.44179 | 38000 ft | 395 kts | 243° |
| 2026-04-25 07:55 | 33.51783 | -122.50063 | 37998 ft | 394 kts | 243° |
| 2026-04-25 07:56 | 33.49330 | -122.55912 | 37997 ft | 391 kts | 243° |
| 2026-04-25 07:56 | 33.47155 | -122.61906 | 38042 ft | 395 kts | 257° |
| 2026-04-25 07:57 | 33.46875 | -122.65176 | 38031 ft | 404 kts | 268° |
| 2026-04-25 07:57 | 33.47259 | -122.68577 | 38026 ft | 411 kts | 277° |
| 2026-04-25 07:57 | 33.48740 | -122.75211 | 38003 ft | 408 kts | 277° |
| 2026-04-25 07:58 | 33.49876 | -122.81879 | 38020 ft | 406 kts | 269° |
| 2026-04-25 07:58 | 33.50082 | -122.88567 | 38011 ft | 403 kts | 267° |
| 2026-04-25 07:59 | 33.50512 | -122.95303 | 38005 ft | 405 kts | 270° |
| 2026-04-25 07:59 | 33.50904 | -123.02055 | 38008 ft | 406 kts | 268° |
| 2026-04-25 08:00 | 33.51288 | -123.08835 | 38010 ft | 409 kts | 269° |
| 2026-04-25 08:00 | 33.51690 | -123.15591 | 38000 ft | 410 kts | 268° |
| 2026-04-25 08:01 | 33.52068 | -123.22425 | 38002 ft | 410 kts | 269° |
| 2026-04-25 08:01 | 33.52451 | -123.29252 | 38003 ft | 410 kts | 268° |
| 2026-04-25 08:02 | 33.52834 | -123.36101 | 38005 ft | 412 kts | 269° |
| 2026-04-25 08:02 | 33.53201 | -123.42896 | 37999 ft | 411 kts | 268° |
| 2026-04-25 08:03 | 33.53582 | -123.49739 | 37994 ft | 411 kts | 268° |
| 2026-04-25 08:03 | 33.53941 | -123.56610 | 38000 ft | 415 kts | 268° |
| 2026-04-25 08:04 | 33.54316 | -123.63497 | 38002 ft | 413 kts | 269° |
| 2026-04-25 08:04 | 33.54666 | -123.70320 | 38000 ft | 412 kts | 268° |
| 2026-04-25 08:05 | 33.55044 | -123.77212 | 38002 ft | 413 kts | 268° |
| 2026-04-25 08:05 | 33.55384 | -123.84108 | 38004 ft | 417 kts | 268° |
| 2026-04-25 08:06 | 33.55751 | -123.91020 | 38003 ft | 413 kts | 268° |
| 2026-04-25 08:06 | 33.56087 | -123.97861 | 37999 ft | 414 kts | 269° |
| 2026-04-25 08:07 | 33.56438 | -124.04797 | 38003 ft | 416 kts | 269° |
| 2026-04-25 08:07 | 33.56783 | -124.11767 | 38002 ft | 418 kts | 268° |
| 2026-04-25 08:08 | 33.57126 | -124.18732 | 38002 ft | 419 kts | 268° |
| 2026-04-25 08:08 | 33.57453 | -124.25644 | 38004 ft | 416 kts | 268° |
| 2026-04-25 08:09 | 33.57787 | -124.32563 | 37985 ft | 414 kts | 268° |
| 2026-04-25 08:09 | 33.58113 | -124.39489 | 37989 ft | 417 kts | 268° |
| 2026-04-25 08:10 | 33.58438 | -124.46425 | 37992 ft | 417 kts | 268° |
| 2026-04-25 08:10 | 33.58754 | -124.53340 | 37991 ft | 416 kts | 268° |
| 2026-04-25 08:11 | 33.59075 | -124.60295 | 37996 ft | 418 kts | 268° |
| 2026-04-25 08:11 | 33.59382 | -124.67220 | 37999 ft | 420 kts | 268° |
| 2026-04-25 08:12 | 33.59694 | -124.74201 | 37996 ft | 418 kts | 268° |
| 2026-04-25 08:12 | 33.59999 | -124.81147 | 37987 ft | 416 kts | 268° |